PWSweather.com
Personal Weather Stations
Station Observations
GRD01
Warsaw, LesznoPL 05-084

WarsawLesznoPL 05-084

Lat: 52.257404, Lon: 20.564847

Elevation: 298

Station Type: WH3080

http://pogoda.kampinos.waw.pl

Latest ConditionsUpdated 12:15:00 PM GMT+01:01 Tuesday, Aug 14, 2018
Currently Today's Max Today's Min Today's Average
Temperature 70.9°F21.6°C 80.1°F26.7°C 65.1°F18.4°C 71.3°F21.8°C
Dew Point 61.0°F16.1°C 62.3°F16.8°C 57.1°F13.9°C 59.5°F15.3°C
Winds 9.2 mph NW14.8 kmh NW 9.2 mph -14.8 kmh - - 3.0 mph 4.8 kmh
Wind Gusts 15.2 mph24.5 kmh 16.8 mph27.0 kmh - -
Humidity 71% 81% 51% 67%
Pressure 29.57 in1001.4 mb 29.57 in1001.4 mb 29.48 in998.3 mb -
Precipitation - 0.12 in3.0 mm - -
Hour Temp Dew Point Humidity Winds Wind Gusts Pressure Precip Precip Rate Daily Precip Total
12:15 PM 70.9°F21.6°C 61.0°F16.1°C 71% 9.2 mph NW14.8 kmh NW 15.2 mph24.5 kmh 29.57 in1001.4 mb 0.12 in3.0 mm 0.00 in0.0 mm 0.12 in3.0 mm
12:00 PM 72.7°F22.6°C 62.3°F16.8°C 70% 6.0 mph WNW9.7 kmh WNW 16.8 mph27.0 kmh 29.56 in1001.0 mb 0.12 in3.0 mm 0.00 in0.0 mm 0.12 in3.0 mm
11:45 AM 73.9°F23.3°C 61.0°F16.1°C 64% 1.6 mph NW2.6 kmh NW 9.8 mph15.8 kmh 29.54 in1000.3 mb 0.12 in3.0 mm 0.48 in12.2 mm 0.12 in3.0 mm
11:30 AM 78.3°F25.7°C 60.2°F15.7°C 54% 1.6 mph W2.6 kmh W 9.2 mph14.8 kmh 29.54 in1000.3 mb 0.00 in0.0 mm 0.00 in0.0 mm 0.00 in0.0 mm
11:15 AM 79.5°F26.4°C 60.4°F15.8°C 52% 2.2 mph N3.5 kmh N 9.2 mph14.8 kmh 29.52 in999.7 mb 0.00 in0.0 mm 0.00 in0.0 mm 0.00 in0.0 mm
11:00 AM 79.9°F26.6°C 61.2°F16.2°C 53% 4.5 mph WNW7.2 kmh WNW 8.3 mph13.4 kmh 29.51 in999.3 mb 0.00 in0.0 mm 0.00 in0.0 mm 0.00 in0.0 mm
10:45 AM 80.1°F26.7°C 60.8°F16.0°C 52% 5.4 mph WSW8.7 kmh WSW 9.2 mph14.8 kmh 29.52 in999.7 mb 0.00 in0.0 mm 0.00 in0.0 mm 0.00 in0.0 mm
10:30 AM 79.9°F26.6°C 60.1°F15.6°C 51% 6.9 mph NW11.1 kmh NW 11.4 mph18.3 kmh 29.52 in999.7 mb 0.00 in0.0 mm 0.00 in0.0 mm 0.00 in0.0 mm
10:15 AM 79.9°F26.6°C 60.7°F15.9°C 52% 2.2 mph NW3.5 kmh NW 9.8 mph15.8 kmh 29.52 in999.7 mb 0.00 in0.0 mm 0.00 in0.0 mm 0.00 in0.0 mm
10:00 AM 79.7°F26.5°C 60.5°F15.8°C 52% 4.5 mph W7.2 kmh W 9.2 mph14.8 kmh 29.51 in999.3 mb 0.00 in0.0 mm 0.00 in0.0 mm 0.00 in0.0 mm
09:45 AM 79.3°F26.3°C 60.7°F15.9°C 53% 3.8 mph W6.1 kmh W 7.6 mph12.2 kmh 29.51 in999.3 mb 0.00 in0.0 mm 0.00 in0.0 mm 0.00 in0.0 mm
09:30 AM 79.3°F26.3°C 60.7°F15.9°C 53% 5.4 mph WNW8.7 kmh WNW 8.3 mph13.4 kmh 29.52 in999.7 mb 0.00 in0.0 mm 0.00 in0.0 mm 0.00 in0.0 mm
09:15 AM 79.0°F26.1°C 60.9°F16.1°C 54% 4.5 mph WNW7.2 kmh WNW 9.2 mph14.8 kmh 29.52 in999.7 mb 0.00 in0.0 mm 0.00 in0.0 mm 0.00 in0.0 mm
09:00 AM 77.4°F25.2°C 59.9°F15.5°C 55% 3.1 mph W5.0 kmh W 7.6 mph12.2 kmh 29.51 in999.3 mb 0.00 in0.0 mm 0.00 in0.0 mm 0.00 in0.0 mm
08:45 AM 75.9°F24.4°C 59.1°F15.1°C 56% 3.1 mph SW5.0 kmh SW 10.7 mph17.2 kmh 29.52 in999.7 mb 0.00 in0.0 mm 0.00 in0.0 mm 0.00 in0.0 mm
08:30 AM 75.2°F24.0°C 58.9°F14.9°C 57% 2.2 mph SW3.5 kmh SW 8.3 mph13.4 kmh 29.51 in999.3 mb 0.00 in0.0 mm 0.00 in0.0 mm 0.00 in0.0 mm
08:15 AM 74.3°F23.5°C 59.5°F15.3°C 60% 4.5 mph S7.2 kmh S 9.2 mph14.8 kmh 29.52 in999.7 mb 0.00 in0.0 mm 0.00 in0.0 mm 0.00 in0.0 mm
08:00 AM 73.8°F23.2°C 59.0°F15.0°C 60% 4.5 mph SSW7.2 kmh SSW 9.2 mph14.8 kmh 29.51 in999.3 mb 0.00 in0.0 mm 0.00 in0.0 mm 0.00 in0.0 mm
07:45 AM 73.4°F23.0°C 58.7°F14.8°C 60% 3.8 mph S6.1 kmh S 10.7 mph17.2 kmh 29.50 in999.0 mb 0.00 in0.0 mm 0.00 in0.0 mm 0.00 in0.0 mm
07:30 AM 72.9°F22.7°C 59.1°F15.1°C 62% 1.6 mph SSW2.6 kmh SSW 10.7 mph17.2 kmh 29.51 in999.3 mb 0.00 in0.0 mm 0.00 in0.0 mm 0.00 in0.0 mm
07:15 AM 72.0°F22.2°C 60.8°F16.0°C 68% 3.8 mph S6.1 kmh S 9.8 mph15.8 kmh 29.50 in999.0 mb 0.00 in0.0 mm 0.00 in0.0 mm 0.00 in0.0 mm
07:00 AM 71.1°F21.7°C 61.2°F16.2°C 71% 3.1 mph SSW5.0 kmh SSW 7.6 mph12.2 kmh 29.49 in998.6 mb 0.00 in0.0 mm 0.00 in0.0 mm 0.00 in0.0 mm
06:45 AM 70.2°F21.2°C 61.1°F16.2°C 73% 3.8 mph SW6.1 kmh SW 6.9 mph11.1 kmh 29.50 in999.0 mb 0.00 in0.0 mm 0.00 in0.0 mm 0.00 in0.0 mm
06:30 AM 69.1°F20.6°C 61.2°F16.2°C 76% 2.2 mph SW3.5 kmh SW 7.6 mph12.2 kmh 29.50 in999.0 mb 0.00 in0.0 mm 0.00 in0.0 mm 0.00 in0.0 mm
06:15 AM 67.8°F19.9°C 61.4°F16.3°C 80% 3.8 mph SSW6.1 kmh SSW 6.9 mph11.1 kmh 29.49 in998.6 mb 0.00 in0.0 mm 0.00 in0.0 mm 0.00 in0.0 mm
06:00 AM 66.7°F19.3°C 60.7°F15.9°C 81% 2.2 mph S3.5 kmh S 6.0 mph9.7 kmh 29.50 in999.0 mb 0.00 in0.0 mm 0.00 in0.0 mm 0.00 in0.0 mm
05:45 AM 66.0°F18.9°C 60.0°F15.6°C 81% 2.2 mph S3.5 kmh S 3.1 mph5.0 kmh 29.50 in999.0 mb 0.00 in0.0 mm 0.00 in0.0 mm 0.00 in0.0 mm
05:30 AM 65.7°F18.7°C 59.7°F15.4°C 81% Calm Calm 2.2 mph3.5 kmh 29.49 in998.6 mb 0.00 in0.0 mm 0.00 in0.0 mm 0.00 in0.0 mm
05:15 AM 65.3°F18.5°C 59.0°F15.0°C 80% Calm Calm 3.1 mph5.0 kmh 29.48 in998.3 mb 0.00 in0.0 mm 0.00 in0.0 mm 0.00 in0.0 mm
05:00 AM 65.3°F18.5°C 59.0°F15.0°C 80% 0.7 mph S1.1 kmh S 3.8 mph6.1 kmh 29.48 in998.3 mb 0.00 in0.0 mm 0.00 in0.0 mm 0.00 in0.0 mm
04:45 AM 65.1°F18.4°C 58.8°F14.9°C 80% 3.8 mph SE6.1 kmh SE 4.5 mph7.2 kmh 29.48 in998.3 mb 0.00 in0.0 mm 0.00 in0.0 mm 0.00 in0.0 mm
04:30 AM 65.3°F18.5°C 58.6°F14.8°C 79% 2.2 mph SSE3.5 kmh SSE 4.5 mph7.2 kmh 29.48 in998.3 mb 0.00 in0.0 mm 0.00 in0.0 mm 0.00 in0.0 mm
04:15 AM 65.5°F18.6°C 58.8°F14.9°C 79% 3.8 mph SE6.1 kmh SE 6.0 mph9.7 kmh 29.48 in998.3 mb 0.00 in0.0 mm 0.00 in0.0 mm 0.00 in0.0 mm
04:00 AM 65.7°F18.7°C 58.6°F14.8°C 78% 1.6 mph SE2.6 kmh SE 4.5 mph7.2 kmh 29.48 in998.3 mb 0.00 in0.0 mm 0.00 in0.0 mm 0.00 in0.0 mm
03:45 AM 65.8°F18.8°C 58.4°F14.7°C 77% 3.1 mph E5.0 kmh E 3.8 mph6.1 kmh 29.48 in998.3 mb 0.00 in0.0 mm 0.00 in0.0 mm 0.00 in0.0 mm
03:30 AM 66.2°F19.0°C 58.8°F14.9°C 77% 2.2 mph SE3.5 kmh SE 5.4 mph8.7 kmh 29.49 in998.6 mb 0.00 in0.0 mm 0.00 in0.0 mm 0.00 in0.0 mm
03:15 AM 66.4°F19.1°C 58.6°F14.8°C 76% 2.2 mph SE3.5 kmh SE 4.5 mph7.2 kmh 29.48 in998.3 mb 0.00 in0.0 mm 0.00 in0.0 mm 0.00 in0.0 mm
03:00 AM 66.7°F19.3°C 58.9°F14.9°C 76% 3.8 mph SSE6.1 kmh SSE 5.4 mph8.7 kmh 29.49 in998.6 mb 0.00 in0.0 mm 0.00 in0.0 mm 0.00 in0.0 mm
02:45 AM 66.9°F19.4°C 59.1°F15.1°C 76% 1.6 mph SSE2.6 kmh SSE 6.0 mph9.7 kmh 29.49 in998.6 mb 0.00 in0.0 mm 0.00 in0.0 mm 0.00 in0.0 mm
02:30 AM 67.1°F19.5°C 58.9°F14.9°C 75% 0.7 mph ESE1.1 kmh ESE 5.4 mph8.7 kmh 29.49 in998.6 mb 0.00 in0.0 mm 0.00 in0.0 mm 0.00 in0.0 mm
02:15 AM 67.5°F19.7°C 58.5°F14.7°C 73% 3.1 mph SE5.0 kmh SE 5.4 mph8.7 kmh 29.49 in998.6 mb 0.00 in0.0 mm 0.00 in0.0 mm 0.00 in0.0 mm
02:00 AM 67.8°F19.9°C 58.5°F14.7°C 72% 2.2 mph SE3.5 kmh SE 4.5 mph7.2 kmh 29.49 in998.6 mb 0.00 in0.0 mm 0.00 in0.0 mm 0.00 in0.0 mm
01:45 AM 68.2°F20.1°C 58.8°F14.9°C 72% 1.6 mph E2.6 kmh E 4.5 mph7.2 kmh 29.49 in998.6 mb 0.00 in0.0 mm 0.00 in0.0 mm 0.00 in0.0 mm
01:30 AM 68.4°F20.2°C 58.6°F14.8°C 71% 2.2 mph SE3.5 kmh SE 4.5 mph7.2 kmh 29.50 in999.0 mb 0.00 in0.0 mm 0.00 in0.0 mm 0.00 in0.0 mm
01:15 AM 68.7°F20.4°C 58.5°F14.7°C 70% 2.2 mph SE3.5 kmh SE 3.8 mph6.1 kmh 29.49 in998.6 mb 0.00 in0.0 mm 0.00 in0.0 mm 0.00 in0.0 mm
01:00 AM 69.3°F20.7°C 58.2°F14.6°C 68% 2.2 mph E3.5 kmh E 3.8 mph6.1 kmh 29.49 in998.6 mb 0.00 in0.0 mm 0.00 in0.0 mm 0.00 in0.0 mm
12:45 AM 69.6°F20.9°C 57.8°F14.3°C 66% 2.2 mph E3.5 kmh E 4.5 mph7.2 kmh 29.50 in999.0 mb 0.00 in0.0 mm 0.00 in0.0 mm 0.00 in0.0 mm
12:30 AM 69.8°F21.0°C 57.5°F14.2°C 65% 3.1 mph E5.0 kmh E 6.9 mph11.1 kmh 29.50 in999.0 mb 0.00 in0.0 mm 0.00 in0.0 mm 0.00 in0.0 mm
12:15 AM 70.0°F21.1°C 57.2°F14.0°C 64% 3.1 mph E5.0 kmh E 6.0 mph9.7 kmh 29.50 in999.0 mb 0.00 in0.0 mm 0.00 in0.0 mm 0.00 in0.0 mm
12:00 AM 70.3°F21.3°C 57.1°F13.9°C 63% 1.6 mph ENE2.6 kmh ENE 4.5 mph7.2 kmh 29.50 in999.0 mb 0.00 in0.0 mm 0.00 in0.0 mm 0.00 in0.0 mm